sensor_id;sensor_type;location;lat;lon;timestamp;P1;durP1;ratioP1;P2;durP2;ratioP2
60851;SDS011;48553;50.766;2.900;2023-10-13T00:02:59;6.13;;;2.03;;
60851;SDS011;48553;50.766;2.900;2023-10-13T00:06:00;13.32;;;2.50;;
60851;SDS011;48553;50.766;2.900;2023-10-13T00:09:04;7.68;;;2.30;;
60851;SDS011;48553;50.766;2.900;2023-10-13T00:12:05;6.70;;;2.10;;
60851;SDS011;48553;50.766;2.900;2023-10-13T00:15:13;7.90;;;1.92;;
60851;SDS011;48553;50.766;2.900;2023-10-13T00:18:13;6.05;;;2.08;;
60851;SDS011;48553;50.766;2.900;2023-10-13T00:21:14;5.50;;;2.13;;
60851;SDS011;48553;50.766;2.900;2023-10-13T00:24:31;5.22;;;2.08;;
60851;SDS011;48553;50.766;2.900;2023-10-13T00:27:39;6.65;;;2.10;;
60851;SDS011;48553;50.766;2.900;2023-10-13T00:30:41;6.35;;;2.15;;
60851;SDS011;48553;50.766;2.900;2023-10-13T00:33:41;7.07;;;2.28;;
60851;SDS011;48553;50.766;2.900;2023-10-13T00:36:42;4.40;;;2.00;;
60851;SDS011;48553;50.766;2.900;2023-10-13T00:40:01;7.63;;;2.25;;
60851;SDS011;48553;50.766;2.900;2023-10-13T00:43:08;7.57;;;1.90;;
60851;SDS011;48553;50.766;2.900;2023-10-13T00:46:20;4.47;;;1.85;;
60851;SDS011;48553;50.766;2.900;2023-10-13T00:49:22;5.55;;;2.10;;
60851;SDS011;48553;50.766;2.900;2023-10-13T00:52:24;5.35;;;2.00;;
60851;SDS011;48553;50.766;2.900;2023-10-13T00:55:24;3.88;;;2.00;;
60851;SDS011;48553;50.766;2.900;2023-10-13T00:58:26;6.60;;;2.20;;
60851;SDS011;48553;50.766;2.900;2023-10-13T01:01:29;4.63;;;2.05;;
60851;SDS011;48553;50.766;2.900;2023-10-13T01:04:33;6.18;;;2.30;;
60851;SDS011;48553;50.766;2.900;2023-10-13T01:07:33;6.20;;;2.95;;
60851;SDS011;48553;50.766;2.900;2023-10-13T01:10:37;6.90;;;3.00;;
60851;SDS011;48553;50.766;2.900;2023-10-13T01:13:41;8.70;;;3.10;;
60851;SDS011;48553;50.766;2.900;2023-10-13T01:16:41;8.68;;;3.60;;
60851;SDS011;48553;50.766;2.900;2023-10-13T01:19:45;8.18;;;3.47;;
60851;SDS011;48553;50.766;2.900;2023-10-13T01:22:49;10.57;;;3.30;;
60851;SDS011;48553;50.766;2.900;2023-10-13T01:25:55;6.07;;;2.90;;
60851;SDS011;48553;50.766;2.900;2023-10-13T01:28:57;6.72;;;3.05;;
60851;SDS011;48553;50.766;2.900;2023-10-13T01:31:57;9.50;;;3.08;;
60851;SDS011;48553;50.766;2.900;2023-10-13T01:34:58;8.82;;;3.20;;
60851;SDS011;48553;50.766;2.900;2023-10-13T01:38:05;7.60;;;3.67;;
60851;SDS011;48553;50.766;2.900;2023-10-13T01:41:06;6.82;;;3.40;;
60851;SDS011;48553;50.766;2.900;2023-10-13T01:44:09;9.90;;;4.15;;
60851;SDS011;48553;50.766;2.900;2023-10-13T01:47:14;9.98;;;4.53;;
60851;SDS011;48553;50.766;2.900;2023-10-13T01:50:16;11.85;;;5.38;;
60851;SDS011;48553;50.766;2.900;2023-10-13T01:53:27;15.77;;;6.65;;
60851;SDS011;48553;50.766;2.900;2023-10-13T01:56:28;12.10;;;6.88;;
60851;SDS011;48553;50.766;2.900;2023-10-13T01:59:32;13.40;;;7.10;;
60851;SDS011;48553;50.766;2.900;2023-10-13T02:02:32;15.27;;;7.30;;
60851;SDS011;48553;50.766;2.900;2023-10-13T02:05:33;15.27;;;7.57;;
60851;SDS011;48553;50.766;2.900;2023-10-13T02:08:36;16.02;;;8.32;;
60851;SDS011;48553;50.766;2.900;2023-10-13T02:11:41;16.33;;;9.00;;
60851;SDS011;48553;50.766;2.900;2023-10-13T02:14:42;15.93;;;8.43;;
60851;SDS011;48553;50.766;2.900;2023-10-13T02:17:44;17.20;;;8.63;;
60851;SDS011;48553;50.766;2.900;2023-10-13T02:20:45;17.55;;;9.45;;
60851;SDS011;48553;50.766;2.900;2023-10-13T02:23:46;21.65;;;9.43;;
60851;SDS011;48553;50.766;2.900;2023-10-13T02:26:59;18.67;;;8.65;;
60851;SDS011;48553;50.766;2.900;2023-10-13T02:30:04;19.60;;;8.95;;
60851;SDS011;48553;50.766;2.900;2023-10-13T02:33:05;18.80;;;9.43;;
60851;SDS011;48553;50.766;2.900;2023-10-13T02:36:07;23.88;;;9.52;;
60851;SDS011;48553;50.766;2.900;2023-10-13T02:39:07;19.55;;;9.10;;
60851;SDS011;48553;50.766;2.900;2023-10-13T02:42:09;16.90;;;8.35;;
60851;SDS011;48553;50.766;2.900;2023-10-13T02:45:16;16.38;;;8.80;;
60851;SDS011;48553;50.766;2.900;2023-10-13T02:48:22;19.02;;;8.38;;
60851;SDS011;48553;50.766;2.900;2023-10-13T02:51:22;15.77;;;8.35;;
60851;SDS011;48553;50.766;2.900;2023-10-13T02:54:32;15.55;;;7.55;;
60851;SDS011;48553;50.766;2.900;2023-10-13T02:57:39;16.30;;;7.35;;
60851;SDS011;48553;50.766;2.900;2023-10-13T03:00:41;14.60;;;7.60;;
60851;SDS011;48553;50.766;2.900;2023-10-13T03:03:41;15.75;;;6.97;;
60851;SDS011;48553;50.766;2.900;2023-10-13T03:06:43;13.95;;;7.13;;
60851;SDS011;48553;50.766;2.900;2023-10-13T03:09:47;15.90;;;7.03;;
60851;SDS011;48553;50.766;2.900;2023-10-13T03:12:57;13.50;;;6.30;;
60851;SDS011;48553;50.766;2.900;2023-10-13T03:15:58;14.02;;;6.38;;
60851;SDS011;48553;50.766;2.900;2023-10-13T03:18:59;14.13;;;6.20;;
60851;SDS011;48553;50.766;2.900;2023-10-13T03:22:03;15.50;;;6.32;;
60851;SDS011;48553;50.766;2.900;2023-10-13T03:25:12;11.90;;;5.45;;
60851;SDS011;48553;50.766;2.900;2023-10-13T03:28:23;10.90;;;5.30;;
60851;SDS011;48553;50.766;2.900;2023-10-13T03:31:34;12.55;;;5.40;;
60851;SDS011;48553;50.766;2.900;2023-10-13T03:34:37;12.18;;;5.40;;
60851;SDS011;48553;50.766;2.900;2023-10-13T03:37:41;10.35;;;5.25;;
60851;SDS011;48553;50.766;2.900;2023-10-13T03:40:42;10.93;;;4.95;;
60851;SDS011;48553;50.766;2.900;2023-10-13T03:43:48;13.10;;;5.15;;
60851;SDS011;48553;50.766;2.900;2023-10-13T03:46:52;12.65;;;5.05;;
60851;SDS011;48553;50.766;2.900;2023-10-13T03:49:54;9.90;;;4.68;;
60851;SDS011;48553;50.766;2.900;2023-10-13T03:53:15;13.95;;;5.75;;
60851;SDS011;48553;50.766;2.900;2023-10-13T03:56:15;11.27;;;5.30;;
60851;SDS011;48553;50.766;2.900;2023-10-13T03:59:23;12.15;;;5.05;;
60851;SDS011;48553;50.766;2.900;2023-10-13T04:02:24;15.43;;;5.50;;
60851;SDS011;48553;50.766;2.900;2023-10-13T04:05:27;15.65;;;5.32;;
60851;SDS011;48553;50.766;2.900;2023-10-13T04:08:37;14.63;;;5.03;;
60851;SDS011;48553;50.766;2.900;2023-10-13T04:11:43;14.25;;;5.53;;
60851;SDS011;48553;50.766;2.900;2023-10-13T04:15:12;13.18;;;5.05;;
60851;SDS011;48553;50.766;2.900;2023-10-13T04:18:21;11.20;;;5.15;;
60851;SDS011;48553;50.766;2.900;2023-10-13T04:21:46;12.15;;;5.45;;
60851;SDS011;48553;50.766;2.900;2023-10-13T04:24:56;14.02;;;5.53;;
60851;SDS011;48553;50.766;2.900;2023-10-13T04:28:22;15.13;;;5.30;;
60851;SDS011;48553;50.766;2.900;2023-10-13T04:34:56;13.38;;;5.30;;
60851;SDS011;48553;50.766;2.900;2023-10-13T04:38:12;12.65;;;4.78;;
60851;SDS011;48553;50.766;2.900;2023-10-13T04:41:19;12.60;;;4.97;;
60851;SDS011;48553;50.766;2.900;2023-10-13T04:44:23;16.92;;;5.28;;
60851;SDS011;48553;50.766;2.900;2023-10-13T04:47:30;14.18;;;5.63;;
60851;SDS011;48553;50.766;2.900;2023-10-13T04:50:41;11.25;;;5.45;;
60851;SDS011;48553;50.766;2.900;2023-10-13T04:53:45;14.40;;;5.68;;
60851;SDS011;48553;50.766;2.900;2023-10-13T04:57:11;12.18;;;5.28;;
60851;SDS011;48553;50.766;2.900;2023-10-13T05:00:23;13.98;;;5.63;;
60851;SDS011;48553;50.766;2.900;2023-10-13T05:03:44;12.52;;;5.88;;
60851;SDS011;48553;50.766;2.900;2023-10-13T05:07:21;13.65;;;5.53;;
60851;SDS011;48553;50.766;2.900;2023-10-13T05:10:40;15.15;;;5.88;;
60851;SDS011;48553;50.766;2.900;2023-10-13T05:13:59;13.05;;;5.60;;
60851;SDS011;48553;50.766;2.900;2023-10-13T05:17:18;13.23;;;5.68;;
60851;SDS011;48553;50.766;2.900;2023-10-13T05:20:37;16.17;;;5.53;;
60851;SDS011;48553;50.766;2.900;2023-10-13T05:23:56;15.73;;;5.30;;
60851;SDS011;48553;50.766;2.900;2023-10-13T05:27:15;15.95;;;5.57;;
60851;SDS011;48553;50.766;2.900;2023-10-13T05:30:34;14.07;;;5.72;;
60851;SDS011;48553;50.766;2.900;2023-10-13T05:33:53;15.07;;;5.18;;
60851;SDS011;48553;50.766;2.900;2023-10-13T05:37:12;11.50;;;5.22;;
60851;SDS011;48553;50.766;2.900;2023-10-13T05:40:32;14.07;;;5.28;;
60851;SDS011;48553;50.766;2.900;2023-10-13T05:43:55;15.38;;;5.32;;
60851;SDS011;48553;50.766;2.900;2023-10-13T05:47:14;13.77;;;4.85;;
60851;SDS011;48553;50.766;2.900;2023-10-13T05:50:35;11.02;;;4.80;;
60851;SDS011;48553;50.766;2.900;2023-10-13T05:54:11;13.15;;;4.63;;
60851;SDS011;48553;50.766;2.900;2023-10-13T05:57:14;19.55;;;4.75;;
60851;SDS011;48553;50.766;2.900;2023-10-13T06:00:37;11.88;;;4.47;;
60851;SDS011;48553;50.766;2.900;2023-10-13T06:03:57;12.63;;;4.82;;
60851;SDS011;48553;50.766;2.900;2023-10-13T06:07:16;12.43;;;4.70;;
60851;SDS011;48553;50.766;2.900;2023-10-13T06:10:24;17.48;;;5.45;;
60851;SDS011;48553;50.766;2.900;2023-10-13T06:13:43;14.85;;;4.93;;
60851;SDS011;48553;50.766;2.900;2023-10-13T06:17:02;12.55;;;4.82;;
60851;SDS011;48553;50.766;2.900;2023-10-13T06:20:21;14.52;;;5.13;;
60851;SDS011;48553;50.766;2.900;2023-10-13T06:23:40;14.70;;;4.65;;
60851;SDS011;48553;50.766;2.900;2023-10-13T06:27:04;14.88;;;5.15;;
60851;SDS011;48553;50.766;2.900;2023-10-13T06:30:23;10.60;;;4.75;;
60851;SDS011;48553;50.766;2.900;2023-10-13T06:33:24;16.25;;;5.10;;
60851;SDS011;48553;50.766;2.900;2023-10-13T06:36:28;12.70;;;5.00;;
60851;SDS011;48553;50.766;2.900;2023-10-13T06:39:29;11.98;;;5.45;;
60851;SDS011;48553;50.766;2.900;2023-10-13T06:42:35;13.43;;;5.05;;
60851;SDS011;48553;50.766;2.900;2023-10-13T06:45:42;11.13;;;4.88;;
60851;SDS011;48553;50.766;2.900;2023-10-13T06:48:50;10.77;;;4.85;;
60851;SDS011;48553;50.766;2.900;2023-10-13T06:51:53;12.07;;;4.93;;
60851;SDS011;48553;50.766;2.900;2023-10-13T06:54:54;16.35;;;5.47;;
60851;SDS011;48553;50.766;2.900;2023-10-13T06:57:55;13.68;;;4.90;;
60851;SDS011;48553;50.766;2.900;2023-10-13T07:01:06;13.68;;;4.93;;
60851;SDS011;48553;50.766;2.900;2023-10-13T07:04:08;17.60;;;5.15;;
60851;SDS011;48553;50.766;2.900;2023-10-13T07:07:16;13.05;;;5.05;;
60851;SDS011;48553;50.766;2.900;2023-10-13T07:10:16;11.15;;;4.90;;
60851;SDS011;48553;50.766;2.900;2023-10-13T07:13:19;14.45;;;5.28;;
60851;SDS011;48553;50.766;2.900;2023-10-13T07:16:20;13.18;;;5.05;;
60851;SDS011;48553;50.766;2.900;2023-10-13T07:19:20;17.83;;;5.40;;
60851;SDS011;48553;50.766;2.900;2023-10-13T07:22:21;17.15;;;5.15;;
60851;SDS011;48553;50.766;2.900;2023-10-13T07:25:23;15.85;;;5.72;;
60851;SDS011;48553;50.766;2.900;2023-10-13T07:28:25;14.98;;;5.20;;
60851;SDS011;48553;50.766;2.900;2023-10-13T07:31:26;13.00;;;5.10;;
60851;SDS011;48553;50.766;2.900;2023-10-13T07:34:27;12.30;;;5.03;;
60851;SDS011;48553;50.766;2.900;2023-10-13T07:37:31;14.98;;;5.05;;
60851;SDS011;48553;50.766;2.900;2023-10-13T07:40:32;15.50;;;5.15;;
60851;SDS011;48553;50.766;2.900;2023-10-13T07:43:35;13.18;;;5.00;;
60851;SDS011;48553;50.766;2.900;2023-10-13T07:46:39;13.13;;;5.10;;
60851;SDS011;48553;50.766;2.900;2023-10-13T07:49:40;12.40;;;5.00;;
60851;SDS011;48553;50.766;2.900;2023-10-13T07:52:41;12.80;;;5.03;;
60851;SDS011;48553;50.766;2.900;2023-10-13T07:55:58;11.63;;;5.28;;
60851;SDS011;48553;50.766;2.900;2023-10-13T08:02:06;15.13;;;5.20;;
60851;SDS011;48553;50.766;2.900;2023-10-13T08:05:12;17.35;;;5.80;;
60851;SDS011;48553;50.766;2.900;2023-10-13T08:08:15;12.35;;;5.35;;
60851;SDS011;48553;50.766;2.900;2023-10-13T08:11:16;13.48;;;5.47;;
60851;SDS011;48553;50.766;2.900;2023-10-13T08:14:23;13.55;;;5.15;;
60851;SDS011;48553;50.766;2.900;2023-10-13T08:17:23;12.57;;;5.75;;
60851;SDS011;48553;50.766;2.900;2023-10-13T08:20:31;13.05;;;5.38;;
60851;SDS011;48553;50.766;2.900;2023-10-13T08:23:38;13.88;;;5.47;;
60851;SDS011;48553;50.766;2.900;2023-10-13T08:26:53;13.40;;;5.78;;
60851;SDS011;48553;50.766;2.900;2023-10-13T08:30:12;12.13;;;5.35;;
60851;SDS011;48553;50.766;2.900;2023-10-13T08:33:34;14.40;;;5.63;;
60851;SDS011;48553;50.766;2.900;2023-10-13T08:36:34;12.05;;;5.57;;
60851;SDS011;48553;50.766;2.900;2023-10-13T08:39:38;10.25;;;4.70;;
60851;SDS011;48553;50.766;2.900;2023-10-13T08:42:57;11.48;;;5.22;;
60851;SDS011;48553;50.766;2.900;2023-10-13T08:46:03;13.98;;;5.43;;
60851;SDS011;48553;50.766;2.900;2023-10-13T08:49:06;13.95;;;5.47;;
60851;SDS011;48553;50.766;2.900;2023-10-13T08:52:14;13.48;;;5.55;;
60851;SDS011;48553;50.766;2.900;2023-10-13T08:55:36;12.40;;;5.45;;
60851;SDS011;48553;50.766;2.900;2023-10-13T08:58:59;12.43;;;5.32;;
60851;SDS011;48553;50.766;2.900;2023-10-13T09:02:03;13.77;;;5.43;;
60851;SDS011;48553;50.766;2.900;2023-10-13T09:05:15;13.70;;;6.10;;
60851;SDS011;48553;50.766;2.900;2023-10-13T09:08:35;14.23;;;5.53;;
60851;SDS011;48553;50.766;2.900;2023-10-13T09:11:36;14.30;;;6.18;;
60851;SDS011;48553;50.766;2.900;2023-10-13T09:14:58;21.33;;;6.18;;
60851;SDS011;48553;50.766;2.900;2023-10-13T09:18:24;16.48;;;5.47;;
60851;SDS011;48553;50.766;2.900;2023-10-13T09:21:46;17.45;;;5.95;;
60851;SDS011;48553;50.766;2.900;2023-10-13T09:24:47;16.02;;;5.90;;
60851;SDS011;48553;50.766;2.900;2023-10-13T09:27:51;15.73;;;5.43;;
60851;SDS011;48553;50.766;2.900;2023-10-13T09:30:53;11.65;;;5.47;;
60851;SDS011;48553;50.766;2.900;2023-10-13T09:33:58;13.38;;;5.80;;
60851;SDS011;48553;50.766;2.900;2023-10-13T09:36:59;10.75;;;5.93;;
60851;SDS011;48553;50.766;2.900;2023-10-13T09:40:03;14.07;;;5.90;;
60851;SDS011;48553;50.766;2.900;2023-10-13T09:43:07;14.00;;;5.50;;
60851;SDS011;48553;50.766;2.900;2023-10-13T09:46:08;15.75;;;6.15;;
60851;SDS011;48553;50.766;2.900;2023-10-13T09:49:16;13.35;;;5.75;;
60851;SDS011;48553;50.766;2.900;2023-10-13T09:52:44;16.20;;;6.20;;
60851;SDS011;48553;50.766;2.900;2023-10-13T09:55:47;17.45;;;5.75;;
60851;SDS011;48553;50.766;2.900;2023-10-13T09:59:11;16.88;;;6.03;;
60851;SDS011;48553;50.766;2.900;2023-10-13T10:02:16;17.83;;;6.05;;
60851;SDS011;48553;50.766;2.900;2023-10-13T10:05:25;16.38;;;6.30;;
60851;SDS011;48553;50.766;2.900;2023-10-13T10:08:26;15.73;;;5.80;;
60851;SDS011;48553;50.766;2.900;2023-10-13T10:11:47;14.70;;;5.95;;
60851;SDS011;48553;50.766;2.900;2023-10-13T10:18:21;13.05;;;5.93;;
60851;SDS011;48553;50.766;2.900;2023-10-13T10:21:32;18.90;;;6.85;;
60851;SDS011;48553;50.766;2.900;2023-10-13T10:24:33;11.27;;;6.10;;
60851;SDS011;48553;50.766;2.900;2023-10-13T10:27:36;13.88;;;6.20;;
60851;SDS011;48553;50.766;2.900;2023-10-13T10:30:37;16.80;;;6.35;;
60851;SDS011;48553;50.766;2.900;2023-10-13T10:33:42;14.13;;;6.22;;
60851;SDS011;48553;50.766;2.900;2023-10-13T10:36:43;15.05;;;6.47;;
60851;SDS011;48553;50.766;2.900;2023-10-13T10:39:54;13.95;;;6.22;;
60851;SDS011;48553;50.766;2.900;2023-10-13T10:42:57;17.92;;;7.30;;
60851;SDS011;48553;50.766;2.900;2023-10-13T10:46:01;16.90;;;6.23;;
60851;SDS011;48553;50.766;2.900;2023-10-13T10:49:03;13.50;;;6.40;;
60851;SDS011;48553;50.766;2.900;2023-10-13T10:52:09;17.23;;;7.28;;
60851;SDS011;48553;50.766;2.900;2023-10-13T10:55:19;17.35;;;6.78;;
60851;SDS011;48553;50.766;2.900;2023-10-13T10:58:20;16.25;;;7.35;;
60851;SDS011;48553;50.766;2.900;2023-10-13T11:01:31;17.48;;;6.85;;
60851;SDS011;48553;50.766;2.900;2023-10-13T11:04:38;15.95;;;6.88;;
60851;SDS011;48553;50.766;2.900;2023-10-13T11:07:50;16.20;;;6.22;;
60851;SDS011;48553;50.766;2.900;2023-10-13T11:10:51;15.38;;;6.78;;
60851;SDS011;48553;50.766;2.900;2023-10-13T11:13:51;15.27;;;6.18;;
60851;SDS011;48553;50.766;2.900;2023-10-13T11:16:54;14.45;;;6.43;;
60851;SDS011;48553;50.766;2.900;2023-10-13T11:20:07;14.90;;;5.95;;
60851;SDS011;48553;50.766;2.900;2023-10-13T11:23:16;13.77;;;6.13;;
60851;SDS011;48553;50.766;2.900;2023-10-13T11:26:16;19.30;;;5.80;;
60851;SDS011;48553;50.766;2.900;2023-10-13T11:29:18;16.00;;;6.28;;
60851;SDS011;48553;50.766;2.900;2023-10-13T11:32:19;14.52;;;5.97;;
60851;SDS011;48553;50.766;2.900;2023-10-13T11:35:20;18.17;;;5.65;;
60851;SDS011;48553;50.766;2.900;2023-10-13T11:38:23;14.20;;;5.78;;
60851;SDS011;48553;50.766;2.900;2023-10-13T11:41:27;15.20;;;5.72;;
60851;SDS011;48553;50.766;2.900;2023-10-13T11:44:34;16.42;;;5.55;;
60851;SDS011;48553;50.766;2.900;2023-10-13T11:47:43;15.00;;;5.57;;
60851;SDS011;48553;50.766;2.900;2023-10-13T11:50:59;12.30;;;5.10;;
60851;SDS011;48553;50.766;2.900;2023-10-13T11:54:01;12.57;;;5.38;;
60851;SDS011;48553;50.766;2.900;2023-10-13T11:57:01;12.70;;;5.13;;
60851;SDS011;48553;50.766;2.900;2023-10-13T12:00:01;17.73;;;5.35;;
60851;SDS011;48553;50.766;2.900;2023-10-13T12:03:22;13.40;;;5.28;;
60851;SDS011;48553;50.766;2.900;2023-10-13T12:06:41;12.93;;;5.22;;
60851;SDS011;48553;50.766;2.900;2023-10-13T12:09:44;12.60;;;4.63;;
60851;SDS011;48553;50.766;2.900;2023-10-13T12:13:03;14.77;;;5.15;;
60851;SDS011;48553;50.766;2.900;2023-10-13T12:16:05;14.15;;;4.85;;
60851;SDS011;48553;50.766;2.900;2023-10-13T12:19:09;11.38;;;4.80;;
60851;SDS011;48553;50.766;2.900;2023-10-13T12:22:11;15.05;;;5.00;;
60851;SDS011;48553;50.766;2.900;2023-10-13T12:25:16;14.75;;;5.03;;
60851;SDS011;48553;50.766;2.900;2023-10-13T12:28:44;11.63;;;4.80;;
60851;SDS011;48553;50.766;2.900;2023-10-13T12:32:00;13.40;;;4.60;;
60851;SDS011;48553;50.766;2.900;2023-10-13T12:35:12;11.95;;;4.55;;
60851;SDS011;48553;50.766;2.900;2023-10-13T12:38:12;9.98;;;4.28;;
60851;SDS011;48553;50.766;2.900;2023-10-13T12:41:31;12.45;;;4.28;;
60851;SDS011;48553;50.766;2.900;2023-10-13T12:44:50;12.25;;;4.50;;
60851;SDS011;48553;50.766;2.900;2023-10-13T12:48:09;14.32;;;4.55;;
60851;SDS011;48553;50.766;2.900;2023-10-13T12:51:28;12.70;;;4.55;;
60851;SDS011;48553;50.766;2.900;2023-10-13T12:54:31;11.18;;;4.20;;
60851;SDS011;48553;50.766;2.900;2023-10-13T12:57:39;16.92;;;4.35;;
60851;SDS011;48553;50.766;2.900;2023-10-13T13:00:43;12.45;;;4.22;;
60851;SDS011;48553;50.766;2.900;2023-10-13T13:03:49;12.35;;;4.53;;
60851;SDS011;48553;50.766;2.900;2023-10-13T13:06:50;14.75;;;4.47;;
60851;SDS011;48553;50.766;2.900;2023-10-13T13:09:51;13.38;;;4.68;;
60851;SDS011;48553;50.766;2.900;2023-10-13T13:12:55;16.30;;;4.32;;
60851;SDS011;48553;50.766;2.900;2023-10-13T13:15:55;12.02;;;4.63;;
60851;SDS011;48553;50.766;2.900;2023-10-13T13:18:56;12.73;;;4.22;;
60851;SDS011;48553;50.766;2.900;2023-10-13T13:21:57;15.45;;;4.82;;
60851;SDS011;48553;50.766;2.900;2023-10-13T13:24:57;14.75;;;5.07;;
60851;SDS011;48553;50.766;2.900;2023-10-13T13:27:58;12.15;;;4.63;;
60851;SDS011;48553;50.766;2.900;2023-10-13T13:31:04;12.57;;;4.35;;
60851;SDS011;48553;50.766;2.900;2023-10-13T13:34:08;13.60;;;5.25;;
60851;SDS011;48553;50.766;2.900;2023-10-13T13:37:12;13.35;;;4.72;;
60851;SDS011;48553;50.766;2.900;2023-10-13T13:40:13;13.30;;;5.25;;
60851;SDS011;48553;50.766;2.900;2023-10-13T13:43:18;13.88;;;5.03;;
60851;SDS011;48553;50.766;2.900;2023-10-13T13:46:31;14.68;;;5.20;;
60851;SDS011;48553;50.766;2.900;2023-10-13T13:49:41;15.27;;;5.22;;
60851;SDS011;48553;50.766;2.900;2023-10-13T13:52:46;16.70;;;5.40;;
60851;SDS011;48553;50.766;2.900;2023-10-13T13:55:47;16.25;;;5.40;;
60851;SDS011;48553;50.766;2.900;2023-10-13T13:58:51;19.50;;;5.45;;
60851;SDS011;48553;50.766;2.900;2023-10-13T14:01:53;14.38;;;4.93;;
60851;SDS011;48553;50.766;2.900;2023-10-13T14:04:59;14.65;;;5.38;;
60851;SDS011;48553;50.766;2.900;2023-10-13T14:08:02;14.00;;;5.13;;
60851;SDS011;48553;50.766;2.900;2023-10-13T14:11:11;14.65;;;5.03;;
60851;SDS011;48553;50.766;2.900;2023-10-13T14:14:12;13.52;;;5.38;;
60851;SDS011;48553;50.766;2.900;2023-10-13T14:17:28;13.57;;;5.43;;
60851;SDS011;48553;50.766;2.900;2023-10-13T14:20:29;13.13;;;5.63;;
60851;SDS011;48553;50.766;2.900;2023-10-13T14:23:29;13.00;;;5.40;;
60851;SDS011;48553;50.766;2.900;2023-10-13T14:26:30;12.73;;;4.72;;
60851;SDS011;48553;50.766;2.900;2023-10-13T14:29:31;19.65;;;5.95;;
60851;SDS011;48553;50.766;2.900;2023-10-13T14:32:31;14.73;;;5.07;;
60851;SDS011;48553;50.766;2.900;2023-10-13T14:35:35;19.77;;;5.93;;
60851;SDS011;48553;50.766;2.900;2023-10-13T14:38:35;13.45;;;5.68;;
60851;SDS011;48553;50.766;2.900;2023-10-13T14:41:36;14.38;;;5.53;;
60851;SDS011;48553;50.766;2.900;2023-10-13T14:47:50;11.32;;;5.30;;
60851;SDS011;48553;50.766;2.900;2023-10-13T14:50:52;9.18;;;4.72;;
60851;SDS011;48553;50.766;2.900;2023-10-13T14:53:52;12.05;;;5.47;;
60851;SDS011;48553;50.766;2.900;2023-10-13T14:56:56;15.27;;;5.30;;
60851;SDS011;48553;50.766;2.900;2023-10-13T15:06:19;14.18;;;5.05;;
60851;SDS011;48553;50.766;2.900;2023-10-13T15:12:33;9.75;;;4.32;;
60851;SDS011;48553;50.766;2.900;2023-10-13T15:15:33;16.40;;;4.88;;
60851;SDS011;48553;50.766;2.900;2023-10-13T15:18:35;12.48;;;5.00;;
60851;SDS011;48553;50.766;2.900;2023-10-13T15:21:36;15.95;;;4.82;;
60851;SDS011;48553;50.766;2.900;2023-10-13T15:24:36;12.27;;;4.75;;
60851;SDS011;48553;50.766;2.900;2023-10-13T15:27:45;14.82;;;4.57;;
60851;SDS011;48553;50.766;2.900;2023-10-13T15:30:50;14.38;;;4.90;;
60851;SDS011;48553;50.766;2.900;2023-10-13T15:34:12;11.98;;;4.35;;
60851;SDS011;48553;50.766;2.900;2023-10-13T15:37:13;14.48;;;4.78;;
60851;SDS011;48553;50.766;2.900;2023-10-13T15:40:15;12.40;;;4.35;;
60851;SDS011;48553;50.766;2.900;2023-10-13T15:43:16;14.63;;;4.28;;
60851;SDS011;48553;50.766;2.900;2023-10-13T15:46:18;16.85;;;4.70;;
60851;SDS011;48553;50.766;2.900;2023-10-13T15:49:22;11.13;;;4.38;;
60851;SDS011;48553;50.766;2.900;2023-10-13T15:52:23;10.98;;;4.75;;
60851;SDS011;48553;50.766;2.900;2023-10-13T15:55:23;17.08;;;4.63;;
60851;SDS011;48553;50.766;2.900;2023-10-13T16:11:07;14.23;;;5.35;;
60851;SDS011;48553;50.766;2.900;2023-10-13T16:14:13;14.52;;;5.55;;
60851;SDS011;48553;50.766;2.900;2023-10-13T16:20:31;13.95;;;6.25;;
60851;SDS011;48553;50.766;2.900;2023-10-13T16:23:31;15.55;;;6.60;;
60851;SDS011;48553;50.766;2.900;2023-10-13T16:26:31;17.85;;;7.47;;
60851;SDS011;48553;50.766;2.900;2023-10-13T16:29:32;16.13;;;7.35;;
60851;SDS011;48553;50.766;2.900;2023-10-13T16:32:32;18.42;;;7.95;;
60851;SDS011;48553;50.766;2.900;2023-10-13T16:35:35;16.88;;;7.93;;
60851;SDS011;48553;50.766;2.900;2023-10-13T16:38:35;18.75;;;8.30;;
60851;SDS011;48553;50.766;2.900;2023-10-13T16:41:36;17.58;;;8.85;;
60851;SDS011;48553;50.766;2.900;2023-10-13T16:44:37;20.95;;;9.70;;
60851;SDS011;48553;50.766;2.900;2023-10-13T16:47:38;23.73;;;10.00;;
60851;SDS011;48553;50.766;2.900;2023-10-13T16:50:43;20.98;;;9.65;;
60851;SDS011;48553;50.766;2.900;2023-10-13T16:53:44;21.30;;;9.52;;
60851;SDS011;48553;50.766;2.900;2023-10-13T16:56:49;21.23;;;9.63;;
60851;SDS011;48553;50.766;2.900;2023-10-13T16:59:50;20.08;;;9.63;;
60851;SDS011;48553;50.766;2.900;2023-10-13T17:06:01;22.70;;;10.07;;
60851;SDS011;48553;50.766;2.900;2023-10-13T17:09:01;25.45;;;10.55;;
60851;SDS011;48553;50.766;2.900;2023-10-13T17:12:04;21.83;;;9.63;;
60851;SDS011;48553;50.766;2.900;2023-10-13T17:15:05;21.27;;;9.65;;
60851;SDS011;48553;50.766;2.900;2023-10-13T17:18:13;18.58;;;9.05;;
60851;SDS011;48553;50.766;2.900;2023-10-13T17:24:21;15.07;;;7.70;;
60851;SDS011;48553;50.766;2.900;2023-10-13T17:27:22;16.52;;;7.10;;
60851;SDS011;48553;50.766;2.900;2023-10-13T17:30:22;16.58;;;7.28;;
60851;SDS011;48553;50.766;2.900;2023-10-13T17:33:22;14.57;;;7.00;;
60851;SDS011;48553;50.766;2.900;2023-10-13T17:36:24;11.55;;;7.03;;
60851;SDS011;48553;50.766;2.900;2023-10-13T17:39:28;17.95;;;8.10;;
60851;SDS011;48553;50.766;2.900;2023-10-13T17:42:29;18.33;;;9.10;;
60851;SDS011;48553;50.766;2.900;2023-10-13T17:45:29;20.00;;;9.85;;
60851;SDS011;48553;50.766;2.900;2023-10-13T17:48:31;20.95;;;10.82;;
60851;SDS011;48553;50.766;2.900;2023-10-13T17:51:32;24.45;;;11.05;;
60851;SDS011;48553;50.766;2.900;2023-10-13T17:54:33;25.88;;;11.82;;
60851;SDS011;48553;50.766;2.900;2023-10-13T17:57:34;27.02;;;12.70;;
60851;SDS011;48553;50.766;2.900;2023-10-13T18:00:34;23.70;;;12.52;;
60851;SDS011;48553;50.766;2.900;2023-10-13T18:06:45;30.05;;;13.68;;
60851;SDS011;48553;50.766;2.900;2023-10-13T18:09:47;24.02;;;13.70;;
60851;SDS011;48553;50.766;2.900;2023-10-13T18:12:47;28.45;;;14.77;;
60851;SDS011;48553;50.766;2.900;2023-10-13T18:15:50;28.83;;;14.70;;
60851;SDS011;48553;50.766;2.900;2023-10-13T18:18:51;27.13;;;15.30;;
60851;SDS011;48553;50.766;2.900;2023-10-13T18:21:53;25.58;;;14.10;;
60851;SDS011;48553;50.766;2.900;2023-10-13T18:24:58;29.40;;;14.73;;
60851;SDS011;48553;50.766;2.900;2023-10-13T18:28:00;26.98;;;14.70;;
60851;SDS011;48553;50.766;2.900;2023-10-13T18:31:03;33.45;;;15.35;;
60851;SDS011;48553;50.766;2.900;2023-10-13T18:34:10;29.45;;;15.30;;
60851;SDS011;48553;50.766;2.900;2023-10-13T18:37:11;28.95;;;15.13;;
60851;SDS011;48553;50.766;2.900;2023-10-13T18:40:13;31.85;;;16.00;;
60851;SDS011;48553;50.766;2.900;2023-10-13T18:43:16;32.55;;;16.00;;
60851;SDS011;48553;50.766;2.900;2023-10-13T18:46:18;30.98;;;15.20;;
60851;SDS011;48553;50.766;2.900;2023-10-13T18:49:25;29.08;;;16.33;;
60851;SDS011;48553;50.766;2.900;2023-10-13T18:52:25;34.35;;;17.23;;
60851;SDS011;48553;50.766;2.900;2023-10-13T18:55:26;33.50;;;17.23;;
60851;SDS011;48553;50.766;2.900;2023-10-13T18:58:26;29.30;;;17.70;;
60851;SDS011;48553;50.766;2.900;2023-10-13T19:01:29;34.03;;;17.88;;
60851;SDS011;48553;50.766;2.900;2023-10-13T19:04:33;35.95;;;18.52;;
60851;SDS011;48553;50.766;2.900;2023-10-13T19:07:36;36.22;;;18.65;;
60851;SDS011;48553;50.766;2.900;2023-10-13T19:10:37;37.08;;;19.10;;
60851;SDS011;48553;50.766;2.900;2023-10-13T19:13:37;30.85;;;18.75;;
60851;SDS011;48553;50.766;2.900;2023-10-13T19:16:39;34.85;;;19.35;;